Terminal Aerodrome Forecast
Issued by NWS

Home | Current Version | Previous Version | Text Only | Print | Product List | Glossary On
Versions: 1 2 3 4 5 6 7 8 9 10 11 12 13 14 15 16 17 18 19 20 21 22 23
000
FTUS43 KILX 261900 AAA
TAFDEC
TAF AMD
KDEC 261941Z 2620/2718 23010KT P6SM BKN020
      TEMPO 2620/2621 SCT025 BKN035
     FM262100 25010KT P6SM VCTS SCT025CB BKN035
      TEMPO 2621/2623 5SM TSRA BR BKN025CB
     FM262300 24007KT P6SM VCTS SCT040CB BKN080
      TEMPO 2623/2701 27025G40KT 2SM TSRA BR BKN025CB OVC040
     FM270300 26006KT P6SM SCT045 BKN250
     FM271500 30012G17KT P6SM SCT045=

USA.gov is the U.S. government's official web portal to all federal, state and local government web resources and services.